Time;durP1;ratioP1;P1;durP2;ratioP2;P2;SDS_P1;SDS_P2;PMS_P1;PMS_P2;Temp;Humidity;BMP_temperature;BMP_pressure;BME280_temperature;BME280_humidity;BME280_pressure;Samples;Min_cycle;Max_cycle;Signal;HPM_P1;HPM_P2
2021/04/01 00:00:33;;;;;;;29.33;12.68;;;;;;;;;;5067290;28;32093;-75
2021/04/01 00:02:59;;;;;;;26.65;11.82;;;;;;;;;;5064253;28;32595;-75
2021/04/01 00:05:27;;;;;;;29.30;12.35;;;;;;;;;;5067824;28;32151;-76
2021/04/01 00:07:53;;;;;;;28.17;11.77;;;;;;;;;;5067426;28;32724;-75
2021/04/01 00:10:20;;;;;;;25.17;11.50;;;;;;;;;;5068989;28;31952;-75
2021/04/01 00:12:46;;;;;;;24.13;12.18;;;;;;;;;;5069483;28;32740;-74
2021/04/01 00:15:12;;;;;;;33.10;11.75;;;;;;;;;;5071788;28;32046;-75
2021/04/01 00:17:39;;;;;;;30.23;11.98;;;;;;;;;;5070026;28;40214;-75
2021/04/01 00:20:06;;;;;;;27.42;11.70;;;;;;;;;;5067876;28;32208;-76
2021/04/01 00:22:32;;;;;;;30.95;13.00;;;;;;;;;;5066696;28;33330;-75
2021/04/01 00:24:57;;;;;;;21.73;12.10;;;;;;;;;;5066456;28;32271;-75
2021/04/01 00:27:23;;;;;;;31.42;13.02;;;;;;;;;;5070011;28;32524;-74
2021/04/01 00:29:49;;;;;;;27.02;13.27;;;;;;;;;;5068746;28;32100;-75
2021/04/01 00:32:15;;;;;;;27.10;12.23;;;;;;;;;;5071068;28;32612;-75
2021/04/01 00:34:40;;;;;;;27.20;13.00;;;;;;;;;;5069899;28;33118;-74
2021/04/01 00:37:06;;;;;;;25.50;12.15;;;;;;;;;;5065531;28;31917;-75
2021/04/01 00:39:32;;;;;;;25.83;12.45;;;;;;;;;;5066237;28;32358;-75
2021/04/01 00:41:57;;;;;;;28.33;12.25;;;;;;;;;;5064951;28;32677;-75
2021/04/01 00:44:23;;;;;;;27.45;11.63;;;;;;;;;;5066229;28;31403;-74
2021/04/01 00:46:49;;;;;;;30.45;11.55;;;;;;;;;;5070592;28;32965;-75
2021/04/01 00:49:15;;;;;;;21.38;11.07;;;;;;;;;;5064508;28;32000;-72
2021/04/01 00:51:41;;;;;;;23.00;11.48;;;;;;;;;;5067297;28;32600;-73
2021/04/01 00:54:07;;;;;;;29.15;12.98;;;;;;;;;;5064469;28;31158;-72
2021/04/01 00:56:33;;;;;;;27.00;11.90;;;;;;;;;;5069625;28;31971;-75
2021/04/01 00:58:59;;;;;;;21.83;12.40;;;;;;;;;;5072213;28;31940;-74
2021/04/01 01:02:08;;;;;;;31.20;13.48;;;;;;;;;;5066825;28;32551;-73
2021/04/01 01:04:14;;;;;;;29.33;12.73;;;;;;;;;;5065478;28;32329;-74
2021/04/01 01:06:40;;;;;;;28.02;12.93;;;;;;;;;;5067926;28;32042;-69
2021/04/01 01:09:06;;;;;;;23.40;12.90;;;;;;;;;;5069568;28;31960;-73
2021/04/01 01:11:33;;;;;;;29.23;13.10;;;;;;;;;;5070603;28;32100;-73
2021/04/01 01:14:00;;;;;;;24.38;11.88;;;;;;;;;;5065894;28;32519;-74
2021/04/01 01:16:26;;;;;;;22.55;12.43;;;;;;;;;;5065738;28;32927;-74
2021/04/01 01:18:52;;;;;;;25.88;12.77;;;;;;;;;;5049830;28;30975;-74
2021/04/01 01:21:18;;;;;;;21.83;11.60;;;;;;;;;;5068794;28;32592;-75
2021/04/01 01:23:44;;;;;;;22.48;12.50;;;;;;;;;;5066155;28;32331;-71
2021/04/01 01:26:10;;;;;;;28.20;12.18;;;;;;;;;;5062610;28;31906;-71
2021/04/01 01:28:36;;;;;;;27.70;12.65;;;;;;;;;;5070545;28;31963;-69
2021/04/01 01:31:01;;;;;;;33.33;14.45;;;;;;;;;;5063788;28;33198;-69
2021/04/01 01:33:27;;;;;;;34.75;13.65;;;;;;;;;;5068415;28;32395;-70
2021/04/01 01:35:54;;;;;;;25.27;13.82;;;;;;;;;;5066771;28;31997;-72
2021/04/01 01:38:20;;;;;;;27.20;13.98;;;;;;;;;;5065846;28;31869;-70
2021/04/01 01:40:46;;;;;;;25.63;12.90;;;;;;;;;;5062104;28;32451;-70
2021/04/01 01:43:13;;;;;;;24.75;12.48;;;;;;;;;;5069829;28;32272;-70
2021/04/01 01:45:39;;;;;;;38.60;13.30;;;;;;;;;;5061986;28;30982;-71
2021/04/01 01:48:05;;;;;;;29.60;13.27;;;;;;;;;;5071117;28;33043;-72
2021/04/01 01:50:32;;;;;;;25.60;12.90;;;;;;;;;;5068892;28;32350;-72
2021/04/01 01:52:58;;;;;;;31.52;12.70;;;;;;;;;;5062130;28;31759;-71
2021/04/01 01:55:24;;;;;;;29.45;12.40;;;;;;;;;;5064254;28;38976;-72
2021/04/01 01:57:50;;;;;;;29.75;11.73;;;;;;;;;;5067240;28;32370;-70
2021/04/01 02:00:18;;;;;;;24.45;12.15;;;;;;;;;;5066908;28;32066;-72
2021/04/01 02:02:51;;;;;;;23.50;12.77;;;;;;;;;;5066619;28;30870;-72
2021/04/01 02:05:17;;;;;;;20.70;11.25;;;;;;;;;;5069897;28;32024;-71
2021/04/01 02:07:42;;;;;;;33.22;12.95;;;;;;;;;;5067905;28;32048;-73
2021/04/01 02:10:08;;;;;;;31.52;12.65;;;;;;;;;;5066501;28;31914;-75
2021/04/01 02:12:38;;;;;;;27.05;13.02;;;;;;;;;;5069635;28;31975;-75
2021/04/01 02:15:04;;;;;;;27.02;12.55;;;;;;;;;;5065813;28;33043;-74
2021/04/01 02:17:30;;;;;;;25.23;11.75;;;;;;;;;;5067904;28;32065;-75
2021/04/01 02:19:58;;;;;;;24.48;12.30;;;;;;;;;;5069479;28;32629;-74
2021/04/01 02:22:24;;;;;;;29.73;13.05;;;;;;;;;;5067184;28;31015;-73
2021/04/01 02:24:50;;;;;;;25.48;13.75;;;;;;;;;;5066707;28;32854;-74
2021/04/01 02:27:15;;;;;;;32.70;13.00;;;;;;;;;;5069524;28;32334;-73
2021/04/01 02:29:41;;;;;;;29.70;12.25;;;;;;;;;;5067410;28;33574;-73
2021/04/01 02:32:07;;;;;;;30.00;13.70;;;;;;;;;;5068205;28;31986;-74
2021/04/01 02:34:33;;;;;;;35.70;13.95;;;;;;;;;;5068524;28;31979;-74
2021/04/01 02:36:59;;;;;;;25.65;13.18;;;;;;;;;;5064344;28;31822;-72
2021/04/01 02:39:24;;;;;;;29.45;14.30;;;;;;;;;;5067631;28;32669;-73
2021/04/01 02:41:50;;;;;;;34.33;12.88;;;;;;;;;;5069605;28;33370;-74
2021/04/01 02:44:16;;;;;;;30.33;12.48;;;;;;;;;;5065108;28;31582;-74
2021/04/01 02:46:41;;;;;;;28.58;12.90;;;;;;;;;;5068094;28;30640;-74
2021/04/01 02:49:07;;;;;;;24.60;12.60;;;;;;;;;;5066315;28;32644;-74
2021/04/01 02:51:33;;;;;;;26.23;12.48;;;;;;;;;;5068839;28;33086;-73
2021/04/01 02:53:58;;;;;;;23.45;11.75;;;;;;;;;;5066825;28;32583;-73
2021/04/01 02:56:24;;;;;;;25.40;13.25;;;;;;;;;;5068499;28;32295;-72
2021/04/01 02:58:50;;;;;;;24.02;11.77;;;;;;;;;;5067568;28;33114;-73
2021/04/01 03:01:15;;;;;;;25.10;12.00;;;;;;;;;;5066283;28;32121;-73
2021/04/01 03:03:44;;;;;;;24.60;11.30;;;;;;;;;;5063652;28;32191;-73
2021/04/01 03:06:10;;;;;;;21.95;11.40;;;;;;;;;;5067790;28;31980;-73
2021/04/01 03:08:36;;;;;;;27.15;13.63;;;;;;;;;;5068448;28;32523;-72
2021/04/01 03:11:02;;;;;;;31.63;13.00;;;;;;;;;;5063523;28;33001;-72
2021/04/01 03:13:27;;;;;;;23.58;11.68;;;;;;;;;;5066805;28;32085;-73
2021/04/01 03:15:53;;;;;;;27.58;12.05;;;;;;;;;;5066326;28;33013;-73
2021/04/01 03:18:19;;;;;;;31.48;13.40;;;;;;;;;;5068716;28;32716;-74
2021/04/01 03:20:46;;;;;;;25.73;13.80;;;;;;;;;;5066352;28;32377;-73
2021/04/01 03:23:12;;;;;;;35.20;12.02;;;;;;;;;;5067914;28;31705;-73
2021/04/01 03:25:38;;;;;;;26.42;12.38;;;;;;;;;;5068603;28;32011;-74
2021/04/01 03:28:04;;;;;;;32.20;13.50;;;;;;;;;;5066121;28;32798;-73
2021/04/01 03:30:29;;;;;;;28.13;13.95;;;;;;;;;;5067053;28;32724;-74
2021/04/01 03:32:55;;;;;;;27.38;12.27;;;;;;;;;;5068038;28;31968;-73
2021/04/01 03:35:25;;;;;;;33.58;13.07;;;;;;;;;;5065240;28;32538;-69
2021/04/01 03:37:55;;;;;;;26.08;13.00;;;;;;;;;;5068061;28;33636;-71
2021/04/01 03:40:21;;;;;;;34.30;12.40;;;;;;;;;;5062138;28;33228;-69
2021/04/01 03:42:47;;;;;;;27.08;14.38;;;;;;;;;;5064246;28;31941;-71
2021/04/01 03:45:14;;;;;;;34.17;12.95;;;;;;;;;;5064819;28;32527;-69
2021/04/01 03:47:40;;;;;;;29.80;11.40;;;;;;;;;;5067899;28;32418;-71
2021/04/01 03:50:06;;;;;;;33.33;12.82;;;;;;;;;;5065708;28;32881;-68
2021/04/01 03:52:32;;;;;;;33.50;12.98;;;;;;;;;;5067816;28;32912;-70
2021/04/01 03:55:07;;;;;;;19.67;11.98;;;;;;;;;;5066098;28;32076;-70
2021/04/01 03:57:32;;;;;;;30.77;12.23;;;;;;;;;;5066256;28;32647;-70
2021/04/01 04:00:05;;;;;;;23.48;12.00;;;;;;;;;;5066778;28;30688;-69
2021/04/01 04:15:47;;;;;;;30.80;12.70;;;;;;;;;;5045143;28;32959;-70
2021/04/01 04:18:13;;;;;;;32.03;13.18;;;;;;;;;;5058597;28;32660;-70
2021/04/01 04:20:39;;;;;;;35.55;12.98;;;;;;;;;;5066014;28;32299;-70
2021/04/01 04:23:06;;;;;;;23.73;12.65;;;;;;;;;;5066470;28;31645;-75
2021/04/01 04:25:33;;;;;;;27.73;13.52;;;;;;;;;;5066726;28;32265;-75
2021/04/01 04:28:09;;;;;;;27.65;12.98;;;;;;;;;;5054289;28;32549;-75
2021/04/01 04:30:34;;;;;;;32.28;13.63;;;;;;;;;;5064892;28;32411;-74
2021/04/01 04:33:01;;;;;;;22.17;12.07;;;;;;;;;;5061491;28;31214;-74
2021/04/01 04:35:26;;;;;;;29.38;12.52;;;;;;;;;;5066806;28;31985;-76
2021/04/01 04:37:52;;;;;;;26.83;12.70;;;;;;;;;;5066268;28;32513;-74
2021/04/01 04:40:18;;;;;;;27.42;14.13;;;;;;;;;;5065026;28;32260;-74
2021/04/01 04:42:44;;;;;;;33.63;14.68;;;;;;;;;;5062335;28;31646;-74
2021/04/01 04:45:09;;;;;;;27.35;13.65;;;;;;;;;;5065453;28;32862;-73
2021/04/01 04:47:35;;;;;;;31.45;13.52;;;;;;;;;;5068512;28;32761;-74
2021/04/01 04:50:01;;;;;;;30.60;12.55;;;;;;;;;;5068529;28;32075;-74
2021/04/01 04:52:28;;;;;;;26.48;13.23;;;;;;;;;;5069517;28;31855;-74
2021/04/01 04:54:54;;;;;;;30.67;14.23;;;;;;;;;;5070628;28;33099;-74
2021/04/01 04:57:24;;;;;;;27.75;13.13;;;;;;;;;;5068303;28;32275;-75
2021/04/01 05:05:06;;;;;;;27.27;13.38;;;;;;;;;;5061820;28;32096;-74
2021/04/01 05:07:32;;;;;;;27.08;13.20;;;;;;;;;;5059236;28;32884;-73
2021/04/01 05:09:58;;;;;;;32.78;13.63;;;;;;;;;;5068529;28;31696;-73
2021/04/01 05:12:23;;;;;;;29.88;14.35;;;;;;;;;;5069207;28;32182;-73
2021/04/01 05:14:49;;;;;;;31.17;14.27;;;;;;;;;;5066832;28;33037;-73
2021/04/01 05:17:20;;;;;;;39.25;14.68;;;;;;;;;;5068811;28;32548;-71
2021/04/01 05:19:47;;;;;;;27.58;13.90;;;;;;;;;;5029162;28;33187;-73
2021/04/01 05:22:17;;;;;;;28.63;13.55;;;;;;;;;;5054285;28;32662;-74
2021/04/01 05:24:43;;;;;;;27.98;13.57;;;;;;;;;;5062887;28;31978;-73
2021/04/01 05:30:10;;;;;;;29.95;13.98;;;;;;;;;;5061125;28;33148;-73
2021/04/01 05:32:42;;;;;;;33.47;14.77;;;;;;;;;;5067092;28;32253;-74
2021/04/01 05:35:10;;;;;;;30.92;14.20;;;;;;;;;;5065766;28;31857;-73
2021/04/01 05:37:38;;;;;;;31.08;15.57;;;;;;;;;;5061518;28;32651;-73
2021/04/01 05:40:05;;;;;;;33.33;16.58;;;;;;;;;;5063127;28;32390;-73
2021/04/01 05:42:35;;;;;;;29.42;16.23;;;;;;;;;;5057293;28;29640;-71
2021/04/01 05:45:10;;;;;;;32.60;15.48;;;;;;;;;;5056965;28;31775;-70
2021/04/01 05:47:40;;;;;;;28.98;16.70;;;;;;;;;;5050093;28;31906;-72
2021/04/01 05:50:17;;;;;;;35.13;19.17;;;;;;;;;;5052326;28;32130;-72
2021/04/01 06:04:04;;;;;;;36.03;14.68;;;;;;;;;;5047216;28;33036;-74
2021/04/01 06:06:53;;;;;;;35.17;15.85;;;;;;;;;;5041876;28;31782;-74
2021/04/01 06:09:20;;;;;;;35.33;14.88;;;;;;;;;;5049159;28;44175;-72
2021/04/01 06:11:53;;;;;;;43.38;17.05;;;;;;;;;;5046811;28;32143;-73
2021/04/01 06:14:29;;;;;;;32.92;16.00;;;;;;;;;;5042833;28;33008;-72
2021/04/01 06:16:55;;;;;;;40.40;16.50;;;;;;;;;;5046895;28;32655;-73
2021/04/01 06:19:28;;;;;;;35.60;17.67;;;;;;;;;;5046090;28;33741;-71
2021/04/01 06:21:54;;;;;;;43.33;18.20;;;;;;;;;;5050258;28;31884;-69
2021/04/01 06:24:20;;;;;;;39.42;18.25;;;;;;;;;;5048912;28;32097;-70
2021/04/01 06:26:48;;;;;;;37.28;17.40;;;;;;;;;;5052161;28;32984;-71
2021/04/01 06:29:16;;;;;;;36.42;16.08;;;;;;;;;;5051334;28;32536;-72
2021/04/01 06:31:43;;;;;;;58.22;21.25;;;;;;;;;;5038293;28;32258;-73
2021/04/01 06:34:10;;;;;;;45.22;19.25;;;;;;;;;;5036205;28;31731;-74
2021/04/01 06:36:46;;;;;;;43.38;19.70;;;;;;;;;;5048719;28;32131;-74
2021/04/01 06:39:19;;;;;;;42.65;20.38;;;;;;;;;;5040461;28;31373;-75
2021/04/01 06:41:45;;;;;;;41.13;18.05;;;;;;;;;;5057837;28;31855;-74
2021/04/01 06:44:14;;;;;;;40.30;18.38;;;;;;;;;;5060417;28;31654;-73
2021/04/01 06:46:44;;;;;;;38.22;18.15;;;;;;;;;;5043373;28;32126;-74
2021/04/01 06:51:48;;;;;;;48.92;20.10;;;;;;;;;;5043106;28;32183;-75
2021/04/01 06:54:29;;;;;;;45.78;18.30;;;;;;;;;;5044300;28;32789;-74
2021/04/01 06:57:25;;;;;;;51.70;20.55;;;;;;;;;;5047544;28;31710;-73
2021/04/01 07:00:10;;;;;;;51.83;21.27;;;;;;;;;;5049741;28;30917;-74
2021/04/01 07:02:42;;;;;;;41.70;19.42;;;;;;;;;;5045699;28;32135;-74
2021/04/01 07:05:17;;;;;;;47.10;21.73;;;;;;;;;;5050353;28;31724;-75
2021/04/01 07:07:48;;;;;;;45.38;20.80;;;;;;;;;;5048801;28;32847;-75
2021/04/01 07:10:34;;;;;;;54.05;20.02;;;;;;;;;;5045420;28;32652;-74
2021/04/01 07:13:00;;;;;;;54.92;21.38;;;;;;;;;;5048834;28;36749;-74
2021/04/01 07:15:28;;;;;;;59.88;23.98;;;;;;;;;;5051483;28;32964;-75
2021/04/01 07:18:09;;;;;;;62.90;23.35;;;;;;;;;;5060186;28;33007;-74
2021/04/01 07:31:58;;;;;;;55.90;23.45;;;;;;;;;;5047022;28;20141;-74
2021/04/01 07:47:56;;;;;;;63.83;23.02;;;;;;;;;;5055103;28;33048;-74
2021/04/01 07:50:24;;;;;;;67.38;24.55;;;;;;;;;;5059609;28;32172;-74
2021/04/01 07:52:51;;;;;;;59.55;22.83;;;;;;;;;;5058002;28;33524;-74
2021/04/01 08:03:51;;;;;;;52.58;17.85;;;;;;;;;;5050980;28;32466;-73
2021/04/01 08:06:05;;;;;;;56.60;17.73;;;;;;;;;;5063255;28;32263;-73
2021/04/01 08:08:35;;;;;;;41.55;14.43;;;;;;;;;;5054304;28;31850;-74
2021/04/01 08:11:02;;;;;;;46.70;16.15;;;;;;;;;;5064429;28;32324;-73
2021/04/01 08:13:31;;;;;;;43.60;16.40;;;;;;;;;;5066403;28;32440;-75
2021/04/01 08:16:02;;;;;;;41.72;16.67;;;;;;;;;;5061847;28;32229;-75
2021/04/01 08:18:31;;;;;;;55.38;16.90;;;;;;;;;;5053730;28;31895;-73
2021/04/01 08:21:01;;;;;;;48.60;16.20;;;;;;;;;;5067492;28;32152;-74
2021/04/01 08:23:32;;;;;;;47.97;15.73;;;;;;;;;;5061951;28;32496;-75
2021/04/01 08:31:18;;;;;;;54.93;18.50;;;;;;;;;;5068599;28;32833;-75
2021/04/01 08:34:36;;;;;;;53.63;18.50;;;;;;;;;;5051231;28;38695;-75
2021/04/01 08:36:34;;;;;;;50.72;17.60;;;;;;;;;;5048873;28;32099;-73
2021/04/01 08:39:00;;;;;;;57.25;18.85;;;;;;;;;;5055503;28;31795;-73
2021/04/01 08:41:39;;;;;;;52.20;19.73;;;;;;;;;;5054396;28;32055;-74
2021/04/01 08:44:05;;;;;;;50.50;18.00;;;;;;;;;;5048811;28;32161;-73
2021/04/01 08:46:53;;;;;;;52.15;18.95;;;;;;;;;;5050208;28;31048;-73
2021/04/01 08:49:37;;;;;;;55.78;18.98;;;;;;;;;;5053492;28;33045;-70
2021/04/01 08:52:30;;;;;;;44.97;19.25;;;;;;;;;;5052309;28;31892;-69
2021/04/01 08:55:10;;;;;;;49.65;17.35;;;;;;;;;;5052434;28;32591;-77
2021/04/01 08:57:44;;;;;;;50.72;19.25;;;;;;;;;;5043830;28;33258;-72
2021/04/01 09:00:11;;;;;;;58.78;20.70;;;;;;;;;;5053006;28;32047;-72
2021/04/01 09:02:37;;;;;;;55.17;18.73;;;;;;;;;;5055376;28;32040;-72
2021/04/01 09:05:08;;;;;;;52.17;19.92;;;;;;;;;;5053869;28;30979;-74
2021/04/01 09:07:51;;;;;;;64.47;22.52;;;;;;;;;;5057547;28;32107;-74
2021/04/01 09:10:30;;;;;;;59.67;20.73;;;;;;;;;;5054863;28;32338;-73
2021/04/01 09:16:25;;;;;;;52.35;20.23;;;;;;;;;;5059878;28;30944;-72
2021/04/01 09:18:27;;;;;;;52.00;20.42;;;;;;;;;;5052595;28;30978;-74
2021/04/01 09:20:54;;;;;;;58.85;22.20;;;;;;;;;;5057669;28;31650;-73
2021/04/01 09:23:21;;;;;;;62.63;25.25;;;;;;;;;;5052377;28;32276;-73
2021/04/01 09:25:49;;;;;;;67.15;23.17;;;;;;;;;;5044354;28;32464;-73
2021/04/01 09:28:15;;;;;;;65.00;22.00;;;;;;;;;;5050212;28;32236;-71
2021/04/01 09:30:42;;;;;;;66.90;22.33;;;;;;;;;;5050335;28;31811;-72
2021/04/01 09:33:35;;;;;;;65.05;21.75;;;;;;;;;;5043206;28;31170;-73
2021/04/01 09:36:06;;;;;;;57.17;21.17;;;;;;;;;;5047400;28;32691;-73
2021/04/01 09:38:39;;;;;;;72.05;23.17;;;;;;;;;;5050614;28;32025;-70
2021/04/01 09:41:06;;;;;;;47.67;20.90;;;;;;;;;;5050941;28;32074;-72
2021/04/01 09:43:31;;;;;;;55.72;24.13;;;;;;;;;;5044655;28;31982;-73
2021/04/01 09:46:07;;;;;;;62.30;22.02;;;;;;;;;;5045858;28;33634;-71
2021/04/01 09:48:34;;;;;;;63.80;23.70;;;;;;;;;;5051337;28;32225;-71
2021/04/01 09:51:00;;;;;;;61.90;22.75;;;;;;;;;;5050518;28;32069;-75
2021/04/01 09:53:26;;;;;;;69.65;23.23;;;;;;;;;;5060996;28;32944;-75
2021/04/01 09:55:53;;;;;;;60.67;21.30;;;;;;;;;;5056628;28;32622;-72
2021/04/01 09:58:25;;;;;;;61.72;23.95;;;;;;;;;;5059994;28;32223;-75
2021/04/01 10:03:22;;;;;;;65.97;25.05;;;;;;;;;;5048615;28;32131;-73
2021/04/01 10:05:48;;;;;;;78.63;25.85;;;;;;;;;;5050608;28;33641;-73
2021/04/01 10:08:23;;;;;;;55.47;17.60;;;;;;;;;;5040792;28;32195;-70
2021/04/01 10:10:50;;;;;;;67.15;25.63;;;;;;;;;;5047970;28;32912;-77
2021/04/01 10:13:19;;;;;;;73.97;25.08;;;;;;;;;;5049730;28;31918;-72
2021/04/01 10:15:45;;;;;;;71.82;29.75;;;;;;;;;;5043920;28;32467;-75
2021/04/01 10:18:13;;;;;;;76.72;30.27;;;;;;;;;;5057823;28;32740;-74
2021/04/01 10:20:39;;;;;;;66.32;28.45;;;;;;;;;;5058078;28;33007;-77
2021/04/01 10:23:06;;;;;;;59.40;23.20;;;;;;;;;;5057449;28;33044;-72
2021/04/01 10:25:35;;;;;;;75.35;28.75;;;;;;;;;;5058358;28;32395;-73
2021/04/01 10:28:10;;;;;;;83.57;37.47;;;;;;;;;;5058087;28;32295;-72
2021/04/01 10:30:36;;;;;;;87.43;34.25;;;;;;;;;;5056981;28;31850;-72
2021/04/01 10:33:23;;;;;;;97.97;39.08;;;;;;;;;;5058786;28;32946;-76
2021/04/01 10:35:51;;;;;;;93.85;35.25;;;;;;;;;;5057834;28;33136;-72
2021/04/01 10:38:20;;;;;;;96.25;41.95;;;;;;;;;;5058259;28;32845;-72
2021/04/01 10:40:49;;;;;;;92.35;36.00;;;;;;;;;;5058499;28;32163;-71
2021/04/01 10:43:17;;;;;;;100.68;37.80;;;;;;;;;;5048532;28;32983;-72
2021/04/01 10:45:44;;;;;;;103.32;37.92;;;;;;;;;;5047144;28;33291;-72
2021/04/01 10:48:22;;;;;;;98.85;39.53;;;;;;;;;;5041767;28;32210;-74
2021/04/01 10:50:50;;;;;;;84.95;35.90;;;;;;;;;;5046868;28;32131;-73
2021/04/01 10:53:16;;;;;;;101.88;41.35;;;;;;;;;;5039178;28;31820;-72
2021/04/01 10:55:42;;;;;;;99.55;40.17;;;;;;;;;;5048753;28;32673;-70
2021/04/01 10:58:09;;;;;;;94.90;39.55;;;;;;;;;;5055356;28;32328;-74
2021/04/01 11:00:35;;;;;;;106.05;40.97;;;;;;;;;;5048596;28;32023;-71
2021/04/01 11:03:06;;;;;;;106.00;41.05;;;;;;;;;;5047136;28;31893;-72
2021/04/01 11:05:34;;;;;;;104.22;42.10;;;;;;;;;;5072310;28;32235;-71
2021/04/01 11:08:03;;;;;;;102.07;37.00;;;;;;;;;;5071293;28;32079;-69
2021/04/01 11:10:30;;;;;;;103.80;43.85;;;;;;;;;;5039032;28;32118;-74
2021/04/01 11:12:58;;;;;;;115.25;44.72;;;;;;;;;;5036824;28;31651;-72
2021/04/01 11:15:25;;;;;;;103.70;43.65;;;;;;;;;;5038563;28;32572;-72
2021/04/01 11:17:54;;;;;;;101.65;48.47;;;;;;;;;;5041541;28;33211;-73
2021/04/01 11:20:22;;;;;;;109.22;44.33;;;;;;;;;;5057748;28;32140;-71
2021/04/01 11:23:03;;;;;;;96.38;39.88;;;;;;;;;;5054991;28;31795;-73
2021/04/01 11:25:29;;;;;;;113.93;47.50;;;;;;;;;;5056844;28;38036;-74
2021/04/01 11:27:55;;;;;;;114.20;48.85;;;;;;;;;;5056592;28;33178;-72
2021/04/01 11:30:22;;;;;;;113.45;44.53;;;;;;;;;;5055854;28;32418;-71
2021/04/01 11:32:49;;;;;;;108.63;41.30;;;;;;;;;;5056963;28;32081;-73
2021/04/01 11:35:15;;;;;;;118.38;48.30;;;;;;;;;;5055515;28;32201;-72
2021/04/01 11:37:44;;;;;;;107.68;42.88;;;;;;;;;;5056631;28;32102;-73
2021/04/01 11:40:10;;;;;;;99.70;42.05;;;;;;;;;;5057536;28;32003;-75
2021/04/01 11:42:36;;;;;;;116.82;47.67;;;;;;;;;;5057959;28;32061;-72
2021/04/01 11:45:06;;;;;;;127.60;50.20;;;;;;;;;;5057767;28;33466;-72
2021/04/01 11:47:33;;;;;;;110.78;48.65;;;;;;;;;;5058130;28;32109;-73
2021/04/01 11:50:02;;;;;;;94.18;38.33;;;;;;;;;;5057411;28;32023;-73
2021/04/01 11:52:27;;;;;;;109.78;47.92;;;;;;;;;;5055133;28;31770;-72
2021/04/01 11:54:54;;;;;;;123.93;47.33;;;;;;;;;;5058802;28;32159;-72
2021/04/01 11:57:29;;;;;;;122.72;46.25;;;;;;;;;;5061986;28;33013;-72
2021/04/01 12:00:00;;;;;;;111.97;45.10;;;;;;;;;;5061133;28;31701;-73
2021/04/01 12:02:27;;;;;;;121.70;48.03;;;;;;;;;;5061809;28;31888;-73
2021/04/01 12:04:56;;;;;;;105.88;44.38;;;;;;;;;;5061114;28;32473;-72
2021/04/01 12:07:22;;;;;;;116.45;45.03;;;;;;;;;;5060682;28;32179;-74
2021/04/01 12:09:48;;;;;;;100.47;44.15;;;;;;;;;;5060221;28;31712;-72
2021/04/01 12:12:15;;;;;;;117.95;48.28;;;;;;;;;;5061196;28;31978;-72
2021/04/01 12:14:42;;;;;;;104.88;42.90;;;;;;;;;;5061612;28;32653;-72
2021/04/01 12:17:08;;;;;;;116.32;47.22;;;;;;;;;;5060200;28;30692;-73
2021/04/01 12:19:35;;;;;;;115.68;45.67;;;;;;;;;;5060423;28;32913;-72
2021/04/01 12:22:07;;;;;;;122.60;52.70;;;;;;;;;;5061398;28;33114;-72
2021/04/01 12:24:34;;;;;;;124.25;49.88;;;;;;;;;;5061311;28;32228;-72
2021/04/01 12:26:59;;;;;;;118.40;44.70;;;;;;;;;;5061385;28;32830;-71
2021/04/01 12:29:26;;;;;;;110.88;47.80;;;;;;;;;;5060768;28;31676;-74
2021/04/01 12:31:57;;;;;;;103.93;43.55;;;;;;;;;;5061319;28;31900;-73
2021/04/01 12:34:24;;;;;;;123.05;48.72;;;;;;;;;;5059756;28;31990;-73
2021/04/01 12:36:50;;;;;;;129.20;48.72;;;;;;;;;;5060504;28;32209;-73
2021/04/01 12:39:15;;;;;;;110.15;45.97;;;;;;;;;;5061416;28;32980;-72
2021/04/01 12:41:43;;;;;;;121.43;46.47;;;;;;;;;;5061257;28;31944;-73
2021/04/01 12:44:09;;;;;;;114.35;49.35;;;;;;;;;;5061668;28;32349;-73
2021/04/01 12:46:44;;;;;;;120.38;50.05;;;;;;;;;;5060660;28;32094;-72
2021/04/01 12:49:11;;;;;;;107.80;44.17;;;;;;;;;;5060058;28;32018;-72
2021/04/01 12:51:44;;;;;;;111.15;47.97;;;;;;;;;;5060429;28;31965;-72
2021/04/01 12:54:11;;;;;;;125.13;50.95;;;;;;;;;;5061081;28;32876;-72
2021/04/01 12:56:43;;;;;;;119.88;49.17;;;;;;;;;;5060219;28;32180;-72
2021/04/01 12:59:18;;;;;;;117.20;44.13;;;;;;;;;;5060172;28;31986;-72
2021/04/01 13:01:47;;;;;;;112.28;48.22;;;;;;;;;;5059859;28;32036;-72
2021/04/01 13:04:15;;;;;;;118.25;44.42;;;;;;;;;;5061164;28;32585;-72
2021/04/01 13:06:48;;;;;;;117.60;46.38;;;;;;;;;;5059839;28;32270;-73
2021/04/01 13:12:07;;;;;;;78.50;29.63;;;;;;;;;;5059740;28;32196;-72
2021/04/01 13:14:33;;;;;;;72.95;25.27;;;;;;;;;;5060528;28;32665;-72
2021/04/01 13:16:59;;;;;;;79.82;27.63;;;;;;;;;;5060626;28;32144;-73
2021/04/01 13:19:24;;;;;;;63.72;24.23;;;;;;;;;;5061165;28;32973;-75
2021/04/01 13:27:01;;;;;;;42.78;15.75;;;;;;;;;;5061493;28;32388;-72
2021/04/01 13:29:30;;;;;;;50.40;16.25;;;;;;;;;;5060874;28;32061;-72
2021/04/01 13:32:00;;;;;;;38.97;12.70;;;;;;;;;;5060894;28;31862;-71
2021/04/01 13:34:29;;;;;;;29.83;11.07;;;;;;;;;;5053277;28;32608;-73
2021/04/01 13:37:10;;;;;;;17.38;7.65;;;;;;;;;;5058391;28;32021;-73
2021/04/01 13:39:38;;;;;;;24.77;8.05;;;;;;;;;;5058514;28;31878;-71
2021/04/01 13:44:52;;;;;;;19.45;6.82;;;;;;;;;;5058600;28;34211;-72
2021/04/01 13:47:22;;;;;;;21.48;7.25;;;;;;;;;;5059498;28;32230;-72
2021/04/01 13:49:50;;;;;;;18.02;5.13;;;;;;;;;;5057992;28;33115;-72
2021/04/01 13:52:31;;;;;;;15.85;6.00;;;;;;;;;;5059452;28;32040;-73
2021/04/01 14:00:15;;;;;;;19.92;5.55;;;;;;;;;;5059309;28;32216;-73
2021/04/01 14:10:58;;;;;;;16.38;4.35;;;;;;;;;;5061620;28;32957;-71
2021/04/01 14:13:24;;;;;;;16.52;5.47;;;;;;;;;;5058833;28;31911;-72
2021/04/01 14:15:50;;;;;;;17.85;5.57;;;;;;;;;;5058471;28;32444;-70
2021/04/01 14:18:16;;;;;;;16.60;4.90;;;;;;;;;;5058481;28;32206;-76
2021/04/01 14:20:42;;;;;;;15.68;4.85;;;;;;;;;;5059794;28;31957;-76
2021/04/01 14:23:12;;;;;;;11.77;4.57;;;;;;;;;;5041919;28;30062;-74
2021/04/01 14:25:43;;;;;;;17.98;4.78;;;;;;;;;;5058206;28;32514;-73
2021/04/01 14:28:09;;;;;;;16.38;5.63;;;;;;;;;;5057760;28;32234;-75
2021/04/01 14:30:36;;;;;;;16.05;3.67;;;;;;;;;;5059493;28;31963;-70
2021/04/01 14:33:02;;;;;;;6.65;3.20;;;;;;;;;;5058753;28;32055;-72
2021/04/01 14:35:31;;;;;;;30.77;5.18;;;;;;;;;;5059341;28;33499;-71
2021/04/01 14:38:03;;;;;;;10.90;4.63;;;;;;;;;;5060033;28;36287;-73
2021/04/01 14:40:34;;;;;;;12.57;4.95;;;;;;;;;;5057147;28;30527;-71
2021/04/01 14:43:02;;;;;;;14.88;5.55;;;;;;;;;;5059032;28;32135;-73
2021/04/01 14:45:30;;;;;;;13.40;5.28;;;;;;;;;;5058094;28;32527;-73
2021/04/01 14:47:56;;;;;;;14.40;4.88;;;;;;;;;;5048219;28;32240;-73
2021/04/01 14:50:22;;;;;;;13.77;4.63;;;;;;;;;;5057449;28;33285;-73
2021/04/01 14:52:48;;;;;;;18.55;4.68;;;;;;;;;;5055562;28;32606;-75
2021/04/01 14:55:16;;;;;;;13.20;3.97;;;;;;;;;;5055379;28;32629;-75
2021/04/01 14:57:42;;;;;;;25.83;3.25;;;;;;;;;;5053521;28;31937;-75
2021/04/01 15:00:10;;;;;;;17.13;4.18;;;;;;;;;;5060105;28;31607;-73
2021/04/01 15:02:36;;;;;;;14.15;3.33;;;;;;;;;;5062801;28;31931;-77
2021/04/01 15:05:02;;;;;;;18.67;3.03;;;;;;;;;;5067078;28;32633;-74
2021/04/01 15:07:29;;;;;;;4.95;1.80;;;;;;;;;;5062699;28;32006;-76
2021/04/01 15:09:55;;;;;;;9.70;2.53;;;;;;;;;;5063296;28;33338;-77
2021/04/01 15:12:22;;;;;;;11.02;2.97;;;;;;;;;;5058913;28;31741;-77
2021/04/01 15:14:49;;;;;;;13.23;2.60;;;;;;;;;;5052759;28;31386;-75
2021/04/01 15:17:16;;;;;;;9.90;1.50;;;;;;;;;;5051078;28;31958;-77
2021/04/01 15:19:46;;;;;;;9.50;2.67;;;;;;;;;;5040813;28;31738;-72
2021/04/01 15:22:11;;;;;;;9.20;2.35;;;;;;;;;;5053943;28;32100;-76
2021/04/01 15:24:37;;;;;;;8.90;2.92;;;;;;;;;;5056870;28;32619;-73
2021/04/01 15:27:03;;;;;;;16.05;3.22;;;;;;;;;;5056428;28;33285;-75
2021/04/01 15:29:29;;;;;;;11.15;2.65;;;;;;;;;;5048428;28;32471;-73
2021/04/01 15:31:54;;;;;;;12.80;3.35;;;;;;;;;;5060180;28;32041;-76
2021/04/01 15:34:23;;;;;;;10.60;3.00;;;;;;;;;;5055895;28;32466;-74
2021/04/01 15:36:49;;;;;;;10.18;3.10;;;;;;;;;;5043899;28;31225;-72
2021/04/01 15:39:15;;;;;;;12.23;3.22;;;;;;;;;;5038562;28;31656;-73
2021/04/01 15:41:41;;;;;;;15.60;2.75;;;;;;;;;;5042229;28;33799;-75
2021/04/01 15:44:07;;;;;;;10.63;2.47;;;;;;;;;;5036759;28;32325;-71
2021/04/01 15:46:33;;;;;;;8.10;2.25;;;;;;;;;;5039521;28;32809;-74
2021/04/01 15:48:59;;;;;;;11.75;2.92;;;;;;;;;;5042373;28;32001;-77
2021/04/01 15:51:25;;;;;;;14.35;2.53;;;;;;;;;;5037933;28;31614;-72
2021/04/01 15:53:52;;;;;;;10.23;2.88;;;;;;;;;;5043216;28;33604;-71
2021/04/01 15:56:18;;;;;;;8.52;3.03;;;;;;;;;;5041569;28;31950;-72
2021/04/01 15:58:44;;;;;;;14.93;3.97;;;;;;;;;;5038927;28;31346;-74
2021/04/01 16:01:10;;;;;;;9.15;2.80;;;;;;;;;;5033681;28;32173;-71
2021/04/01 16:03:35;;;;;;;18.50;2.63;;;;;;;;;;5036347;28;31393;-72
2021/04/01 16:06:01;;;;;;;6.68;2.63;;;;;;;;;;5044330;28;32142;-70
2021/04/01 16:08:27;;;;;;;10.82;2.47;;;;;;;;;;5049955;28;31858;-74